sensor_id;sensor_type;location;lat;lon;timestamp;P1;durP1;ratioP1;P2;durP2;ratioP2
826;SDS011;395;48.132;11.608;2022-08-05T00:01:11;8.00;;;6.67;;
826;SDS011;395;48.132;11.608;2022-08-05T00:03:38;7.37;;;6.77;;
826;SDS011;395;48.132;11.608;2022-08-05T00:06:03;7.03;;;6.23;;
826;SDS011;395;48.132;11.608;2022-08-05T00:08:29;7.10;;;6.50;;
826;SDS011;395;48.132;11.608;2022-08-05T00:10:58;7.33;;;6.70;;
826;SDS011;395;48.132;11.608;2022-08-05T00:13:25;6.93;;;6.43;;
826;SDS011;395;48.132;11.608;2022-08-05T00:15:50;6.67;;;6.07;;
826;SDS011;395;48.132;11.608;2022-08-05T00:18:16;6.27;;;5.67;;
826;SDS011;395;48.132;11.608;2022-08-05T00:20:42;6.77;;;6.27;;
826;SDS011;395;48.132;11.608;2022-08-05T00:23:07;7.00;;;6.40;;
826;SDS011;395;48.132;11.608;2022-08-05T00:25:33;6.10;;;5.70;;
826;SDS011;395;48.132;11.608;2022-08-05T00:27:59;6.53;;;6.03;;
826;SDS011;395;48.132;11.608;2022-08-05T00:30:25;6.57;;;6.07;;
826;SDS011;395;48.132;11.608;2022-08-05T00:32:50;6.73;;;6.23;;
826;SDS011;395;48.132;11.608;2022-08-05T00:35:16;6.00;;;5.60;;
826;SDS011;395;48.132;11.608;2022-08-05T00:37:42;6.23;;;5.73;;
826;SDS011;395;48.132;11.608;2022-08-05T00:40:07;6.37;;;5.87;;
826;SDS011;395;48.132;11.608;2022-08-05T00:42:37;6.90;;;6.30;;
826;SDS011;395;48.132;11.608;2022-08-05T00:45:07;11.23;;;6.20;;
826;SDS011;395;48.132;11.608;2022-08-05T00:47:33;7.53;;;6.83;;
826;SDS011;395;48.132;11.608;2022-08-05T00:49:59;6.83;;;6.27;;
826;SDS011;395;48.132;11.608;2022-08-05T00:52:24;7.23;;;6.57;;
826;SDS011;395;48.132;11.608;2022-08-05T00:54:50;6.43;;;6.03;;
826;SDS011;395;48.132;11.608;2022-08-05T00:57:16;6.50;;;5.83;;
826;SDS011;395;48.132;11.608;2022-08-05T00:59:41;6.83;;;6.33;;
826;SDS011;395;48.132;11.608;2022-08-05T01:02:07;6.33;;;5.83;;
826;SDS011;395;48.132;11.608;2022-08-05T01:04:35;5.53;;;5.13;;
826;SDS011;395;48.132;11.608;2022-08-05T01:07:00;6.23;;;5.80;;
826;SDS011;395;48.132;11.608;2022-08-05T01:09:26;6.10;;;5.70;;
826;SDS011;395;48.132;11.608;2022-08-05T01:11:52;6.10;;;5.70;;
826;SDS011;395;48.132;11.608;2022-08-05T01:14:25;6.60;;;6.10;;
826;SDS011;395;48.132;11.608;2022-08-05T01:17:04;6.40;;;6.00;;
826;SDS011;395;48.132;11.608;2022-08-05T01:30:02;6.63;;;6.13;;
826;SDS011;395;48.132;11.608;2022-08-05T01:32:29;6.90;;;6.40;;
826;SDS011;395;48.132;11.608;2022-08-05T01:35:03;7.13;;;6.43;;
826;SDS011;395;48.132;11.608;2022-08-05T01:40:13;6.57;;;6.07;;
826;SDS011;395;48.132;11.608;2022-08-05T01:42:41;6.63;;;6.03;;
826;SDS011;395;48.132;11.608;2022-08-05T01:45:09;7.13;;;6.63;;
826;SDS011;395;48.132;11.608;2022-08-05T01:47:37;6.60;;;6.20;;
826;SDS011;395;48.132;11.608;2022-08-05T01:50:04;6.40;;;5.93;;
826;SDS011;395;48.132;11.608;2022-08-05T01:52:32;6.00;;;5.60;;
826;SDS011;395;48.132;11.608;2022-08-05T01:55:01;5.90;;;5.40;;
826;SDS011;395;48.132;11.608;2022-08-05T01:57:31;6.27;;;5.67;;
826;SDS011;395;48.132;11.608;2022-08-05T02:00:02;7.60;;;5.67;;
826;SDS011;395;48.132;11.608;2022-08-05T02:02:29;7.00;;;6.30;;
826;SDS011;395;48.132;11.608;2022-08-05T02:05:00;6.47;;;5.90;;
826;SDS011;395;48.132;11.608;2022-08-05T02:07:29;6.73;;;6.23;;
826;SDS011;395;48.132;11.608;2022-08-05T02:09:56;7.57;;;6.97;;
826;SDS011;395;48.132;11.608;2022-08-05T02:12:42;7.03;;;6.43;;
826;SDS011;395;48.132;11.608;2022-08-05T02:15:25;6.60;;;6.10;;
826;SDS011;395;48.132;11.608;2022-08-05T02:17:58;7.17;;;6.67;;
826;SDS011;395;48.132;11.608;2022-08-05T02:20:27;6.87;;;5.97;;
826;SDS011;395;48.132;11.608;2022-08-05T02:22:58;6.97;;;6.37;;
826;SDS011;395;48.132;11.608;2022-08-05T02:25:31;7.47;;;6.63;;
826;SDS011;395;48.132;11.608;2022-08-05T02:28:00;6.60;;;6.10;;
826;SDS011;395;48.132;11.608;2022-08-05T02:31:01;6.63;;;6.03;;
826;SDS011;395;48.132;11.608;2022-08-05T02:33:22;6.57;;;6.07;;
826;SDS011;395;48.132;11.608;2022-08-05T02:35:51;6.20;;;5.80;;
826;SDS011;395;48.132;11.608;2022-08-05T02:38:20;7.03;;;6.53;;
826;SDS011;395;48.132;11.608;2022-08-05T02:40:47;7.37;;;6.77;;
826;SDS011;395;48.132;11.608;2022-08-05T02:43:13;7.97;;;7.27;;
826;SDS011;395;48.132;11.608;2022-08-05T02:45:40;7.23;;;6.73;;
826;SDS011;395;48.132;11.608;2022-08-05T02:48:08;7.20;;;6.60;;
826;SDS011;395;48.132;11.608;2022-08-05T02:50:35;6.77;;;6.10;;
826;SDS011;395;48.132;11.608;2022-08-05T02:53:02;7.10;;;6.60;;
826;SDS011;395;48.132;11.608;2022-08-05T02:55:28;7.57;;;6.83;;
826;SDS011;395;48.132;11.608;2022-08-05T02:57:57;6.90;;;6.40;;
826;SDS011;395;48.132;11.608;2022-08-05T03:00:23;6.77;;;6.27;;
826;SDS011;395;48.132;11.608;2022-08-05T03:02:49;6.63;;;6.23;;
826;SDS011;395;48.132;11.608;2022-08-05T03:05:16;6.50;;;6.00;;
826;SDS011;395;48.132;11.608;2022-08-05T03:07:43;6.43;;;5.93;;
826;SDS011;395;48.132;11.608;2022-08-05T03:10:10;6.67;;;6.03;;
826;SDS011;395;48.132;11.608;2022-08-05T03:12:40;6.13;;;5.63;;
826;SDS011;395;48.132;11.608;2022-08-05T03:15:06;6.57;;;6.07;;
826;SDS011;395;48.132;11.608;2022-08-05T03:17:34;5.80;;;5.40;;
826;SDS011;395;48.132;11.608;2022-08-05T03:20:01;7.03;;;6.40;;
826;SDS011;395;48.132;11.608;2022-08-05T03:22:27;6.30;;;5.80;;
826;SDS011;395;48.132;11.608;2022-08-05T03:24:52;6.70;;;6.23;;
826;SDS011;395;48.132;11.608;2022-08-05T03:27:19;6.50;;;6.00;;
826;SDS011;395;48.132;11.608;2022-08-05T03:29:46;7.43;;;6.80;;
826;SDS011;395;48.132;11.608;2022-08-05T03:32:12;6.27;;;5.67;;
826;SDS011;395;48.132;11.608;2022-08-05T03:34:39;6.70;;;6.10;;
826;SDS011;395;48.132;11.608;2022-08-05T03:37:05;5.83;;;5.43;;
826;SDS011;395;48.132;11.608;2022-08-05T03:39:31;6.50;;;6.00;;
826;SDS011;395;48.132;11.608;2022-08-05T03:41:57;7.57;;;6.43;;
826;SDS011;395;48.132;11.608;2022-08-05T03:44:23;6.27;;;5.77;;
826;SDS011;395;48.132;11.608;2022-08-05T03:46:49;6.80;;;6.20;;
826;SDS011;395;48.132;11.608;2022-08-05T03:49:15;6.97;;;6.47;;
826;SDS011;395;48.132;11.608;2022-08-05T03:51:42;6.70;;;6.10;;
826;SDS011;395;48.132;11.608;2022-08-05T03:54:32;6.93;;;6.33;;
826;SDS011;395;48.132;11.608;2022-08-05T03:57:03;6.03;;;5.63;;
826;SDS011;395;48.132;11.608;2022-08-05T03:59:42;6.57;;;5.97;;
826;SDS011;395;48.132;11.608;2022-08-05T04:02:13;6.83;;;6.30;;
826;SDS011;395;48.132;11.608;2022-08-05T04:04:40;6.60;;;6.00;;
826;SDS011;395;48.132;11.608;2022-08-05T04:07:07;6.93;;;6.33;;
826;SDS011;395;48.132;11.608;2022-08-05T04:09:34;6.20;;;5.70;;
826;SDS011;395;48.132;11.608;2022-08-05T04:12:01;7.13;;;6.53;;
826;SDS011;395;48.132;11.608;2022-08-05T04:14:27;6.43;;;5.80;;
826;SDS011;395;48.132;11.608;2022-08-05T04:16:53;6.87;;;6.33;;
826;SDS011;395;48.132;11.608;2022-08-05T04:19:19;6.87;;;6.40;;
826;SDS011;395;48.132;11.608;2022-08-05T04:21:45;7.40;;;6.90;;
826;SDS011;395;48.132;11.608;2022-08-05T04:24:10;6.20;;;5.80;;
826;SDS011;395;48.132;11.608;2022-08-05T04:26:36;6.80;;;6.20;;
826;SDS011;395;48.132;11.608;2022-08-05T04:29:02;6.70;;;6.23;;
826;SDS011;395;48.132;11.608;2022-08-05T04:31:28;6.87;;;6.27;;
826;SDS011;395;48.132;11.608;2022-08-05T04:33:53;6.67;;;6.17;;
826;SDS011;395;48.132;11.608;2022-08-05T04:36:19;6.13;;;5.60;;
826;SDS011;395;48.132;11.608;2022-08-05T04:38:45;6.60;;;6.03;;
826;SDS011;395;48.132;11.608;2022-08-05T04:41:10;6.30;;;5.80;;
826;SDS011;395;48.132;11.608;2022-08-05T04:43:37;6.07;;;5.57;;
826;SDS011;395;48.132;11.608;2022-08-05T04:46:03;6.20;;;5.63;;
826;SDS011;395;48.132;11.608;2022-08-05T04:48:29;6.33;;;5.80;;
826;SDS011;395;48.132;11.608;2022-08-05T04:50:55;7.30;;;5.37;;
826;SDS011;395;48.132;11.608;2022-08-05T04:53:21;5.23;;;4.83;;
826;SDS011;395;48.132;11.608;2022-08-05T04:55:46;6.00;;;5.40;;
826;SDS011;395;48.132;11.608;2022-08-05T04:58:13;6.10;;;5.60;;
826;SDS011;395;48.132;11.608;2022-08-05T05:00:40;5.27;;;4.87;;
826;SDS011;395;48.132;11.608;2022-08-05T05:03:06;5.13;;;4.80;;
826;SDS011;395;48.132;11.608;2022-08-05T05:05:33;5.57;;;5.17;;
826;SDS011;395;48.132;11.608;2022-08-05T05:08:00;5.60;;;5.20;;
826;SDS011;395;48.132;11.608;2022-08-05T05:10:26;7.10;;;5.23;;
826;SDS011;395;48.132;11.608;2022-08-05T05:12:53;4.63;;;4.30;;
826;SDS011;395;48.132;11.608;2022-08-05T05:15:18;5.83;;;4.90;;
826;SDS011;395;48.132;11.608;2022-08-05T05:17:44;5.23;;;4.73;;
826;SDS011;395;48.132;11.608;2022-08-05T05:20:10;5.20;;;4.70;;
826;SDS011;395;48.132;11.608;2022-08-05T05:22:37;10.30;;;5.30;;
826;SDS011;395;48.132;11.608;2022-08-05T05:25:03;5.40;;;4.90;;
826;SDS011;395;48.132;11.608;2022-08-05T05:27:31;4.80;;;4.37;;
826;SDS011;395;48.132;11.608;2022-08-05T05:29:57;5.40;;;5.00;;
826;SDS011;395;48.132;11.608;2022-08-05T05:32:23;11.67;;;5.20;;
826;SDS011;395;48.132;11.608;2022-08-05T05:34:49;5.53;;;5.00;;
826;SDS011;395;48.132;11.608;2022-08-05T05:37:14;5.70;;;5.30;;
826;SDS011;395;48.132;11.608;2022-08-05T05:39:40;5.57;;;5.07;;
826;SDS011;395;48.132;11.608;2022-08-05T05:42:07;5.53;;;5.00;;
826;SDS011;395;48.132;11.608;2022-08-05T05:44:32;5.87;;;5.13;;
826;SDS011;395;48.132;11.608;2022-08-05T05:46:58;5.23;;;4.87;;
826;SDS011;395;48.132;11.608;2022-08-05T05:49:24;5.50;;;5.10;;
826;SDS011;395;48.132;11.608;2022-08-05T05:51:50;6.87;;;4.80;;
826;SDS011;395;48.132;11.608;2022-08-05T05:54:16;5.23;;;4.83;;
826;SDS011;395;48.132;11.608;2022-08-05T05:56:42;5.00;;;4.60;;
826;SDS011;395;48.132;11.608;2022-08-05T05:59:08;6.33;;;4.80;;
826;SDS011;395;48.132;11.608;2022-08-05T06:01:34;5.33;;;4.83;;
826;SDS011;395;48.132;11.608;2022-08-05T06:04:08;5.37;;;4.97;;
826;SDS011;395;48.132;11.608;2022-08-05T06:06:35;4.97;;;4.57;;
826;SDS011;395;48.132;11.608;2022-08-05T06:09:03;4.43;;;4.13;;
826;SDS011;395;48.132;11.608;2022-08-05T06:11:30;5.40;;;4.80;;
826;SDS011;395;48.132;11.608;2022-08-05T06:13:56;5.10;;;4.70;;
826;SDS011;395;48.132;11.608;2022-08-05T06:16:22;4.67;;;4.10;;
826;SDS011;395;48.132;11.608;2022-08-05T06:18:48;4.90;;;4.40;;
826;SDS011;395;48.132;11.608;2022-08-05T06:21:13;4.80;;;4.27;;
826;SDS011;395;48.132;11.608;2022-08-05T06:23:39;5.17;;;4.63;;
826;SDS011;395;48.132;11.608;2022-08-05T06:26:05;4.70;;;4.40;;
826;SDS011;395;48.132;11.608;2022-08-05T06:28:30;4.87;;;4.47;;
826;SDS011;395;48.132;11.608;2022-08-05T06:30:56;6.60;;;4.00;;
826;SDS011;395;48.132;11.608;2022-08-05T06:33:22;4.97;;;4.57;;
826;SDS011;395;48.132;11.608;2022-08-05T06:35:48;5.60;;;5.10;;
826;SDS011;395;48.132;11.608;2022-08-05T06:38:13;4.37;;;4.07;;
826;SDS011;395;48.132;11.608;2022-08-05T06:40:41;5.87;;;5.00;;
826;SDS011;395;48.132;11.608;2022-08-05T06:43:07;4.60;;;4.30;;
826;SDS011;395;48.132;11.608;2022-08-05T06:45:32;5.20;;;4.70;;
826;SDS011;395;48.132;11.608;2022-08-05T06:47:58;6.00;;;3.93;;
826;SDS011;395;48.132;11.608;2022-08-05T06:50:24;5.40;;;4.90;;
826;SDS011;395;48.132;11.608;2022-08-05T06:52:51;4.80;;;4.33;;
826;SDS011;395;48.132;11.608;2022-08-05T06:55:17;5.17;;;4.67;;
826;SDS011;395;48.132;11.608;2022-08-05T06:57:42;5.10;;;4.60;;
826;SDS011;395;48.132;11.608;2022-08-05T07:00:08;5.17;;;4.77;;
826;SDS011;395;48.132;11.608;2022-08-05T07:02:43;5.20;;;4.60;;
826;SDS011;395;48.132;11.608;2022-08-05T07:05:10;4.60;;;4.30;;
826;SDS011;395;48.132;11.608;2022-08-05T07:07:37;5.07;;;4.67;;
826;SDS011;395;48.132;11.608;2022-08-05T07:10:03;5.13;;;4.70;;
826;SDS011;395;48.132;11.608;2022-08-05T07:12:29;4.67;;;4.27;;
826;SDS011;395;48.132;11.608;2022-08-05T07:15:13;4.80;;;4.40;;
826;SDS011;395;48.132;11.608;2022-08-05T07:17:57;5.47;;;4.97;;
826;SDS011;395;48.132;11.608;2022-08-05T07:20:23;4.80;;;4.30;;
826;SDS011;395;48.132;11.608;2022-08-05T07:22:49;6.27;;;4.40;;
826;SDS011;395;48.132;11.608;2022-08-05T07:25:14;5.37;;;4.87;;
826;SDS011;395;48.132;11.608;2022-08-05T07:27:40;4.70;;;4.30;;
826;SDS011;395;48.132;11.608;2022-08-05T07:30:06;6.30;;;4.30;;
826;SDS011;395;48.132;11.608;2022-08-05T07:32:35;4.93;;;4.53;;
826;SDS011;395;48.132;11.608;2022-08-05T07:35:11;6.63;;;4.60;;
826;SDS011;395;48.132;11.608;2022-08-05T07:37:38;7.03;;;4.27;;
826;SDS011;395;48.132;11.608;2022-08-05T07:40:04;6.70;;;4.63;;
826;SDS011;395;48.132;11.608;2022-08-05T07:42:30;5.03;;;4.43;;
826;SDS011;395;48.132;11.608;2022-08-05T07:44:56;4.83;;;4.47;;
826;SDS011;395;48.132;11.608;2022-08-05T07:47:22;5.03;;;4.53;;
826;SDS011;395;48.132;11.608;2022-08-05T07:49:48;10.50;;;5.17;;
826;SDS011;395;48.132;11.608;2022-08-05T07:52:16;4.93;;;4.53;;
826;SDS011;395;48.132;11.608;2022-08-05T07:54:45;4.87;;;4.50;;
826;SDS011;395;48.132;11.608;2022-08-05T07:57:11;5.53;;;5.03;;
826;SDS011;395;48.132;11.608;2022-08-05T07:59:37;5.30;;;4.90;;
826;SDS011;395;48.132;11.608;2022-08-05T08:02:03;5.30;;;4.90;;
826;SDS011;395;48.132;11.608;2022-08-05T08:04:29;5.40;;;4.90;;
826;SDS011;395;48.132;11.608;2022-08-05T08:06:54;5.43;;;4.90;;
826;SDS011;395;48.132;11.608;2022-08-05T08:09:20;5.63;;;5.03;;
826;SDS011;395;48.132;11.608;2022-08-05T08:11:48;5.43;;;5.03;;
826;SDS011;395;48.132;11.608;2022-08-05T08:14:14;5.87;;;5.27;;
826;SDS011;395;48.132;11.608;2022-08-05T08:16:39;9.13;;;5.20;;
826;SDS011;395;48.132;11.608;2022-08-05T08:19:05;5.03;;;4.60;;
826;SDS011;395;48.132;11.608;2022-08-05T08:21:32;5.67;;;5.17;;
826;SDS011;395;48.132;11.608;2022-08-05T08:23:58;5.57;;;5.17;;
826;SDS011;395;48.132;11.608;2022-08-05T08:26:23;5.73;;;5.33;;
826;SDS011;395;48.132;11.608;2022-08-05T08:28:49;6.67;;;6.07;;
826;SDS011;395;48.132;11.608;2022-08-05T08:31:15;8.53;;;5.50;;
826;SDS011;395;48.132;11.608;2022-08-05T08:33:42;6.37;;;5.73;;
826;SDS011;395;48.132;11.608;2022-08-05T08:36:08;6.90;;;6.20;;
826;SDS011;395;48.132;11.608;2022-08-05T08:38:34;7.47;;;5.67;;
826;SDS011;395;48.132;11.608;2022-08-05T08:41:00;8.13;;;6.00;;
826;SDS011;395;48.132;11.608;2022-08-05T08:43:31;6.70;;;5.70;;
826;SDS011;395;48.132;11.608;2022-08-05T08:45:58;6.40;;;5.90;;
826;SDS011;395;48.132;11.608;2022-08-05T08:48:27;7.20;;;6.50;;
826;SDS011;395;48.132;11.608;2022-08-05T08:50:55;10.73;;;6.40;;
826;SDS011;395;48.132;11.608;2022-08-05T08:53:22;6.50;;;5.90;;
826;SDS011;395;48.132;11.608;2022-08-05T08:55:52;7.60;;;6.90;;
826;SDS011;395;48.132;11.608;2022-08-05T08:58:19;7.33;;;6.00;;
826;SDS011;395;48.132;11.608;2022-08-05T09:00:44;6.93;;;6.23;;
826;SDS011;395;48.132;11.608;2022-08-05T09:03:12;7.80;;;7.10;;
826;SDS011;395;48.132;11.608;2022-08-05T09:05:38;9.13;;;7.00;;
826;SDS011;395;48.132;11.608;2022-08-05T09:08:03;8.23;;;6.17;;
826;SDS011;395;48.132;11.608;2022-08-05T09:10:29;6.87;;;6.27;;
826;SDS011;395;48.132;11.608;2022-08-05T09:12:55;8.53;;;6.50;;
826;SDS011;395;48.132;11.608;2022-08-05T09:15:21;9.80;;;6.03;;
826;SDS011;395;48.132;11.608;2022-08-05T09:17:48;6.83;;;6.33;;
826;SDS011;395;48.132;11.608;2022-08-05T09:20:15;6.10;;;5.70;;
826;SDS011;395;48.132;11.608;2022-08-05T09:25:28;6.93;;;6.27;;
826;SDS011;395;48.132;11.608;2022-08-05T09:27:54;7.70;;;6.13;;
826;SDS011;395;48.132;11.608;2022-08-05T09:30:20;7.20;;;6.50;;
826;SDS011;395;48.132;11.608;2022-08-05T09:32:46;9.00;;;6.23;;
826;SDS011;395;48.132;11.608;2022-08-05T09:35:12;6.80;;;6.20;;
826;SDS011;395;48.132;11.608;2022-08-05T09:37:50;11.07;;;6.07;;
826;SDS011;395;48.132;11.608;2022-08-05T09:40:36;6.37;;;5.77;;
826;SDS011;395;48.132;11.608;2022-08-05T09:43:05;7.03;;;5.50;;
826;SDS011;395;48.132;11.608;2022-08-05T09:45:35;8.10;;;5.87;;
826;SDS011;395;48.132;11.608;2022-08-05T09:48:21;6.67;;;6.17;;
826;SDS011;395;48.132;11.608;2022-08-05T09:50:53;6.63;;;6.03;;
826;SDS011;395;48.132;11.608;2022-08-05T09:53:20;8.13;;;6.43;;
826;SDS011;395;48.132;11.608;2022-08-05T09:55:50;6.33;;;5.57;;
826;SDS011;395;48.132;11.608;2022-08-05T09:58:17;6.60;;;6.10;;
826;SDS011;395;48.132;11.608;2022-08-05T10:00:52;6.70;;;6.10;;
826;SDS011;395;48.132;11.608;2022-08-05T10:03:24;6.63;;;5.50;;
826;SDS011;395;48.132;11.608;2022-08-05T10:06:00;6.43;;;5.80;;
826;SDS011;395;48.132;11.608;2022-08-05T10:08:31;5.80;;;5.30;;
826;SDS011;395;48.132;11.608;2022-08-05T10:10:57;7.13;;;6.03;;
826;SDS011;395;48.132;11.608;2022-08-05T10:13:27;6.87;;;5.67;;
826;SDS011;395;48.132;11.608;2022-08-05T10:16:00;8.90;;;5.93;;
826;SDS011;395;48.132;11.608;2022-08-05T10:18:26;6.50;;;5.80;;
826;SDS011;395;48.132;11.608;2022-08-05T10:21:04;5.70;;;5.17;;
826;SDS011;395;48.132;11.608;2022-08-05T10:23:32;7.47;;;6.20;;
826;SDS011;395;48.132;11.608;2022-08-05T10:26:01;6.50;;;5.90;;
826;SDS011;395;48.132;11.608;2022-08-05T10:28:31;6.37;;;5.87;;
826;SDS011;395;48.132;11.608;2022-08-05T10:30:58;7.90;;;5.77;;
826;SDS011;395;48.132;11.608;2022-08-05T10:33:26;5.47;;;5.07;;
826;SDS011;395;48.132;11.608;2022-08-05T10:35:53;6.27;;;5.60;;
826;SDS011;395;48.132;11.608;2022-08-05T10:38:20;5.50;;;5.00;;
826;SDS011;395;48.132;11.608;2022-08-05T10:46:15;5.67;;;4.87;;
826;SDS011;395;48.132;11.608;2022-08-05T10:48:45;4.80;;;4.50;;
826;SDS011;395;48.132;11.608;2022-08-05T10:51:13;6.17;;;4.80;;
826;SDS011;395;48.132;11.608;2022-08-05T10:56:15;7.63;;;5.00;;
826;SDS011;395;48.132;11.608;2022-08-05T11:06:32;6.40;;;5.60;;
826;SDS011;395;48.132;11.608;2022-08-05T11:11:50;6.23;;;5.10;;
826;SDS011;395;48.132;11.608;2022-08-05T11:19:44;5.30;;;4.80;;
826;SDS011;395;48.132;11.608;2022-08-05T11:28:41;5.17;;;4.70;;
826;SDS011;395;48.132;11.608;2022-08-05T11:33:38;5.13;;;4.83;;
826;SDS011;395;48.132;11.608;2022-08-05T11:39:11;5.10;;;4.67;;
826;SDS011;395;48.132;11.608;2022-08-05T11:41:38;5.63;;;4.53;;
826;SDS011;395;48.132;11.608;2022-08-05T11:44:09;4.83;;;4.53;;
826;SDS011;395;48.132;11.608;2022-08-05T11:46:52;5.57;;;5.00;;
826;SDS011;395;48.132;11.608;2022-08-05T11:49:19;6.00;;;4.60;;
826;SDS011;395;48.132;11.608;2022-08-05T11:51:50;4.93;;;4.53;;
826;SDS011;395;48.132;11.608;2022-08-05T11:54:21;6.03;;;4.37;;
826;SDS011;395;48.132;11.608;2022-08-05T11:56:53;7.50;;;4.67;;
826;SDS011;395;48.132;11.608;2022-08-05T11:59:27;7.30;;;4.13;;
826;SDS011;395;48.132;11.608;2022-08-05T12:02:01;6.83;;;4.37;;
826;SDS011;395;48.132;11.608;2022-08-05T12:07:06;7.70;;;4.73;;
826;SDS011;395;48.132;11.608;2022-08-05T12:09:46;4.77;;;4.40;;
826;SDS011;395;48.132;11.608;2022-08-05T12:12:25;4.60;;;4.07;;
826;SDS011;395;48.132;11.608;2022-08-05T12:14:54;4.50;;;4.03;;
826;SDS011;395;48.132;11.608;2022-08-05T12:17:20;5.50;;;5.00;;
826;SDS011;395;48.132;11.608;2022-08-05T12:19:48;5.07;;;4.60;;
826;SDS011;395;48.132;11.608;2022-08-05T12:22:20;4.47;;;4.07;;
826;SDS011;395;48.132;11.608;2022-08-05T12:24:50;4.70;;;4.30;;
826;SDS011;395;48.132;11.608;2022-08-05T12:27:20;6.50;;;4.60;;
826;SDS011;395;48.132;11.608;2022-08-05T12:29:57;4.53;;;3.93;;
826;SDS011;395;48.132;11.608;2022-08-05T12:32:23;4.33;;;4.03;;
826;SDS011;395;48.132;11.608;2022-08-05T12:34:48;5.83;;;4.30;;
826;SDS011;395;48.132;11.608;2022-08-05T12:37:14;5.23;;;4.60;;
826;SDS011;395;48.132;11.608;2022-08-05T12:39:41;5.90;;;4.10;;
826;SDS011;395;48.132;11.608;2022-08-05T12:42:11;5.40;;;4.90;;
826;SDS011;395;48.132;11.608;2022-08-05T12:44:40;4.70;;;4.30;;
826;SDS011;395;48.132;11.608;2022-08-05T12:47:06;4.27;;;3.97;;
826;SDS011;395;48.132;11.608;2022-08-05T12:49:39;4.37;;;3.97;;
826;SDS011;395;48.132;11.608;2022-08-05T12:52:10;8.10;;;4.13;;
826;SDS011;395;48.132;11.608;2022-08-05T12:54:38;4.93;;;4.37;;
826;SDS011;395;48.132;11.608;2022-08-05T12:57:05;6.37;;;4.17;;
826;SDS011;395;48.132;11.608;2022-08-05T12:59:33;8.33;;;4.40;;
826;SDS011;395;48.132;11.608;2022-08-05T13:02:09;5.50;;;4.50;;
826;SDS011;395;48.132;11.608;2022-08-05T13:04:36;4.40;;;4.10;;
826;SDS011;395;48.132;11.608;2022-08-05T13:07:05;4.40;;;4.03;;
826;SDS011;395;48.132;11.608;2022-08-05T13:09:36;4.30;;;4.00;;
826;SDS011;395;48.132;11.608;2022-08-05T13:12:04;4.67;;;4.27;;
826;SDS011;395;48.132;11.608;2022-08-05T13:14:36;6.47;;;4.37;;
826;SDS011;395;48.132;11.608;2022-08-05T13:17:19;5.17;;;4.77;;
826;SDS011;395;48.132;11.608;2022-08-05T13:22:30;5.07;;;4.67;;
826;SDS011;395;48.132;11.608;2022-08-05T13:25:10;4.90;;;4.40;;
826;SDS011;395;48.132;11.608;2022-08-05T13:27:48;4.43;;;4.13;;
826;SDS011;395;48.132;11.608;2022-08-05T13:30:16;4.80;;;4.10;;
826;SDS011;395;48.132;11.608;2022-08-05T13:32:45;4.73;;;4.40;;
826;SDS011;395;48.132;11.608;2022-08-05T13:35:12;4.83;;;4.40;;
826;SDS011;395;48.132;11.608;2022-08-05T13:37:42;4.73;;;4.33;;
826;SDS011;395;48.132;11.608;2022-08-05T13:40:08;4.57;;;4.17;;
826;SDS011;395;48.132;11.608;2022-08-05T13:42:35;5.33;;;4.60;;
826;SDS011;395;48.132;11.608;2022-08-05T13:45:01;7.10;;;4.60;;
826;SDS011;395;48.132;11.608;2022-08-05T13:47:27;4.40;;;4.10;;
826;SDS011;395;48.132;11.608;2022-08-05T13:49:53;4.70;;;4.30;;
826;SDS011;395;48.132;11.608;2022-08-05T13:52:22;4.80;;;4.50;;
826;SDS011;395;48.132;11.608;2022-08-05T13:54:50;7.73;;;4.67;;
826;SDS011;395;48.132;11.608;2022-08-05T13:57:16;4.30;;;4.00;;
826;SDS011;395;48.132;11.608;2022-08-05T13:59:42;5.00;;;4.50;;
826;SDS011;395;48.132;11.608;2022-08-05T14:02:08;4.67;;;4.37;;
826;SDS011;395;48.132;11.608;2022-08-05T14:04:37;7.70;;;4.70;;
826;SDS011;395;48.132;11.608;2022-08-05T14:07:23;5.20;;;4.70;;
826;SDS011;395;48.132;11.608;2022-08-05T14:09:50;4.63;;;4.33;;
826;SDS011;395;48.132;11.608;2022-08-05T14:12:16;4.80;;;4.50;;
826;SDS011;395;48.132;11.608;2022-08-05T14:14:42;7.20;;;4.80;;
826;SDS011;395;48.132;11.608;2022-08-05T14:17:07;4.50;;;4.20;;
826;SDS011;395;48.132;11.608;2022-08-05T14:19:33;6.43;;;4.77;;
826;SDS011;395;48.132;11.608;2022-08-05T14:21:59;4.73;;;4.30;;
826;SDS011;395;48.132;11.608;2022-08-05T14:24:24;4.80;;;4.40;;
826;SDS011;395;48.132;11.608;2022-08-05T14:26:50;5.00;;;4.60;;
826;SDS011;395;48.132;11.608;2022-08-05T14:29:16;4.80;;;4.40;;
826;SDS011;395;48.132;11.608;2022-08-05T14:31:45;5.87;;;4.57;;
826;SDS011;395;48.132;11.608;2022-08-05T14:34:11;6.10;;;4.37;;
826;SDS011;395;48.132;11.608;2022-08-05T14:36:36;4.80;;;4.30;;
826;SDS011;395;48.132;11.608;2022-08-05T14:39:02;4.87;;;4.47;;
826;SDS011;395;48.132;11.608;2022-08-05T14:41:30;4.70;;;4.30;;
826;SDS011;395;48.132;11.608;2022-08-05T14:43:56;8.40;;;4.37;;
826;SDS011;395;48.132;11.608;2022-08-05T14:46:22;4.73;;;4.40;;
826;SDS011;395;48.132;11.608;2022-08-05T14:48:49;4.80;;;4.37;;
826;SDS011;395;48.132;11.608;2022-08-05T14:51:15;4.37;;;4.07;;
826;SDS011;395;48.132;11.608;2022-08-05T14:53:41;5.10;;;4.70;;
826;SDS011;395;48.132;11.608;2022-08-05T14:56:07;5.13;;;4.50;;
826;SDS011;395;48.132;11.608;2022-08-05T14:58:33;4.40;;;4.00;;
826;SDS011;395;48.132;11.608;2022-08-05T15:00:58;4.60;;;4.20;;
826;SDS011;395;48.132;11.608;2022-08-05T15:03:24;4.93;;;4.37;;
826;SDS011;395;48.132;11.608;2022-08-05T15:05:54;4.40;;;4.10;;
826;SDS011;395;48.132;11.608;2022-08-05T15:08:20;4.70;;;4.40;;
826;SDS011;395;48.132;11.608;2022-08-05T15:10:45;7.30;;;4.77;;
826;SDS011;395;48.132;11.608;2022-08-05T15:13:11;4.90;;;4.50;;
826;SDS011;395;48.132;11.608;2022-08-05T15:15:37;4.70;;;4.23;;
826;SDS011;395;48.132;11.608;2022-08-05T15:18:03;4.17;;;3.87;;
826;SDS011;395;48.132;11.608;2022-08-05T15:20:29;6.67;;;4.40;;
826;SDS011;395;48.132;11.608;2022-08-05T15:22:54;4.77;;;4.37;;
826;SDS011;395;48.132;11.608;2022-08-05T15:25:21;4.90;;;4.40;;
826;SDS011;395;48.132;11.608;2022-08-05T15:27:48;4.00;;;3.70;;
826;SDS011;395;48.132;11.608;2022-08-05T15:30:13;4.43;;;4.00;;
826;SDS011;395;48.132;11.608;2022-08-05T15:32:39;5.03;;;4.30;;
826;SDS011;395;48.132;11.608;2022-08-05T15:35:05;4.87;;;4.40;;
826;SDS011;395;48.132;11.608;2022-08-05T15:37:31;4.63;;;4.23;;
826;SDS011;395;48.132;11.608;2022-08-05T15:39:57;5.23;;;4.83;;
826;SDS011;395;48.132;11.608;2022-08-05T15:42:22;5.97;;;4.27;;
826;SDS011;395;48.132;11.608;2022-08-05T15:44:48;5.03;;;4.50;;
826;SDS011;395;48.132;11.608;2022-08-05T15:47:14;5.13;;;4.67;;
826;SDS011;395;48.132;11.608;2022-08-05T15:49:40;7.67;;;4.57;;
826;SDS011;395;48.132;11.608;2022-08-05T15:52:06;5.20;;;4.70;;
826;SDS011;395;48.132;11.608;2022-08-05T15:54:32;4.87;;;4.40;;
826;SDS011;395;48.132;11.608;2022-08-05T15:56:57;5.40;;;4.40;;
826;SDS011;395;48.132;11.608;2022-08-05T15:59:23;4.93;;;4.63;;
826;SDS011;395;48.132;11.608;2022-08-05T16:01:49;5.20;;;4.70;;
826;SDS011;395;48.132;11.608;2022-08-05T16:04:15;4.70;;;4.23;;
826;SDS011;395;48.132;11.608;2022-08-05T16:06:41;5.00;;;4.60;;
826;SDS011;395;48.132;11.608;2022-08-05T16:09:06;4.80;;;4.40;;
826;SDS011;395;48.132;11.608;2022-08-05T16:11:32;4.40;;;4.10;;
826;SDS011;395;48.132;11.608;2022-08-05T16:14:01;4.90;;;4.00;;
826;SDS011;395;48.132;11.608;2022-08-05T16:16:27;4.50;;;4.20;;
826;SDS011;395;48.132;11.608;2022-08-05T16:18:53;5.50;;;5.00;;
826;SDS011;395;48.132;11.608;2022-08-05T16:21:19;4.50;;;4.20;;
826;SDS011;395;48.132;11.608;2022-08-05T16:23:45;5.30;;;4.90;;
826;SDS011;395;48.132;11.608;2022-08-05T16:26:10;6.03;;;5.53;;
826;SDS011;395;48.132;11.608;2022-08-05T16:28:37;6.07;;;5.47;;
826;SDS011;395;48.132;11.608;2022-08-05T16:31:03;5.73;;;5.20;;